Monday, November 20, 2017, 2:32 AM EST
Back to Local

KCDW, Caldwell Essex County Airport

Location: Fairfield, NJ, United States Lat: 40.883
Local Time: 2:32 AM EST ( 7:32 GMT) Lon: -74.283
Time Zone: US/Eastern Elev: 173 ft

Show me the last for .
Show Decoded

2017-11-20 01:53 METAR KCDW 200653Z AUTO 30008KT 10SM OVC070 03/M03 A2986 RMK AO2 SLP116
                 T00331028 TSNO =
2017-11-20 00:53 METAR KCDW 200553Z AUTO VRB04KT 10SM SCT065 OVC085 03/M02 A2983 RMK AO2 SLP106
                 T00331022 10067 20028 53016 TSNO =
2017-11-19 23:53 METAR KCDW 200453Z 28005KT 10SM SCT090 03/M02 A2981 RMK AO2 SLP101 T00331017
                 401440028 =
2017-11-19 22:53 METAR KCDW 200353Z 28008KT 10SM FEW065 BKN085 03/M01 A2979 RMK AO2 SLP093
                 T00331006 =
2017-11-19 21:53 METAR KCDW 200253Z 31011KT 9SM FEW023 SCT035 OVC055 05/01 A2978 RMK AO2 SLP090
                 T00500006 53027 =
2017-11-19 20:53 METAR KCDW 200153Z 28007KT 10SM FEW044 BKN090 06/M02 A2974 RMK AO2 SLP078
                 T00611022 =
2017-11-19 19:53 METAR KCDW 200053Z 32003KT 10SM OVC075 07/M03 A2972 RMK AO2 SLP071 T00671028 =
2017-11-19 18:53 METAR KCDW 192353Z 32006KT 10SM BKN080 07/M04 A2970 RMK AO2 SLP062 T00671039
                 10094 20061 51029 =
2017-11-19 17:53 METAR KCDW 192253Z 31006KT 10SM OVC065 07/M04 A2967 RMK AO2 SLP053 T00721044 =
2017-11-19 16:53 METAR KCDW 192153Z 31013G20KT 10SM OVC060 07/M04 A2965 RMK AO2 SLP044 T00721039
                 =
2017-11-19 15:53 METAR KCDW 192053Z 32010G18KT 10SM SCT050 08/M03 A2961 RMK AO2 SLP033 T00781033
                 51029 =
2017-11-19 14:53 METAR KCDW 191953Z 31019G30KT 10SM BKN049 08/M03 A2959 RMK AO2 PK WND 30030/1945
                 SLP025 T00781028 =
2017-11-19 13:53 METAR KCDW 191853Z 31019G32KT 10SM OVC049 08/M01 A2955 RMK AO2 PK WND 30033/1843
                 SLP014 T00831011 =
2017-11-19 12:53 METAR KCDW 191753Z 30017G31KT 10SM SCT050 09/M01 A2953 RMK AO2 PK WND 33031/1749
                 SLP004 60000 T00891011 10144 20089 51036 =
2017-11-19 11:53 METAR KCDW 191653Z 30023G30KT 10SM BKN048 09/M01 A2950 RMK AO2 PK WND 30041/1614
                 SLP997 T00891006 =
2017-11-19 10:53 METAR KCDW 191553Z 30021G33KT 10SM BKN046 10/00 A2946 RMK AO2 PK WND 30034/1542
                 SLP982 T01000000 =
2017-11-19 09:53 METAR KCDW 191453Z 30017G32KT 10SM SCT043 10/01 A2942 RMK AO2 PK WND 30035/1421
                 RAE49 PRESRR SLP968 P0000 60000 T01000011 53070 =
2017-11-19 08:53 METAR KCDW 191353Z 29018G27KT 10SM -RA OVC040 11/04 A2934 RMK AO2 PK WND
                 26028/1337 SLP942 P0000 T01060044 =
2017-11-19 07:53 METAR KCDW 191253Z 29015G28KT 10SM -RA FEW033 SCT050 12/07 A2929 RMK AO2 PK WND
                 29033/1235 PRESRR SLP923 P0000 T01170067 =
2017-11-19 06:53 METAR KCDW 191153Z 23010G19KT 180V270 10SM -RA SCT019 BKN025 OVC033 14/13 A2921
                 RMK AO2 RAB10E32B53 SLP897 P0000 60004 70016 T01440133 10144 20056 55016 =
2017-11-19 05:53 METAR KCDW 191053Z AUTO 23009G20KT 190V260 10SM BKN016 BKN024 OVC037 14/14 A2921
                 RMK AO2 RAB13E50 SLP894 P0000 T01440139 TSNO =
2017-11-19 04:53 METAR KCDW 190953Z AUTO 23011G22KT 10SM OVC015 14/13 A2925 RMK AO2 RAE52 SLP911
                 P0002 T01390133 TSNO =
2017-11-19 03:53 METAR KCDW 190853Z AUTO VRB05G15KT 8SM -RA BKN019 OVC095 13/13 A2926 RMK AO2
                 SLP913 P0002 60002 T01330128 56023 TSNO =
2017-11-19 03:51 METAR KCDW 190851Z AUTO VRB06G15KT 9SM -RA BKN019 BKN024 OVC095 13/13 A2926 RMK
                 AO2 P0002 TSNO =
2017-11-19 02:53 METAR KCDW 190753Z AUTO 29004KT 4SM -RA BR FEW031 BKN080 OVC100 07/07 A2931 RMK
                 AO2 SLP929 P0000 T00670067 TSNO =

Support USWX by starting your Amazon purchase here.